sensor_id;sensor_type;location;lat;lon;timestamp;P1;durP1;ratioP1;P2;durP2;ratioP2
49784;SDS011;35679;38.732;-121.358;2023-06-10T00:01:14;6.80;;;6.50;;
49784;SDS011;35679;38.732;-121.358;2023-06-10T00:04:03;6.97;;;6.65;;
49784;SDS011;35679;38.732;-121.358;2023-06-10T00:06:53;5.28;;;5.00;;
49784;SDS011;35679;38.732;-121.358;2023-06-10T00:09:42;6.07;;;5.78;;
49784;SDS011;35679;38.732;-121.358;2023-06-10T00:12:32;5.95;;;5.55;;
49784;SDS011;35679;38.732;-121.358;2023-06-10T00:15:25;5.88;;;5.57;;
49784;SDS011;35679;38.732;-121.358;2023-06-10T00:18:14;5.40;;;5.10;;
49784;SDS011;35679;38.732;-121.358;2023-06-10T00:21:04;5.30;;;5.10;;
49784;SDS011;35679;38.732;-121.358;2023-06-10T00:23:54;5.45;;;5.15;;
49784;SDS011;35679;38.732;-121.358;2023-06-10T00:26:44;1.88;;;1.73;;
49784;SDS011;35679;38.732;-121.358;2023-06-10T00:29:33;1.52;;;1.42;;
49784;SDS011;35679;38.732;-121.358;2023-06-10T00:32:22;1.75;;;1.65;;
49784;SDS011;35679;38.732;-121.358;2023-06-10T00:35:12;3.28;;;1.88;;
49784;SDS011;35679;38.732;-121.358;2023-06-10T00:38:01;1.92;;;1.83;;
49784;SDS011;35679;38.732;-121.358;2023-06-10T00:40:51;2.08;;;1.80;;
49784;SDS011;35679;38.732;-121.358;2023-06-10T00:43:40;2.15;;;2.00;;
49784;SDS011;35679;38.732;-121.358;2023-06-10T00:46:29;1.70;;;1.60;;
49784;SDS011;35679;38.732;-121.358;2023-06-10T00:49:20;1.80;;;1.70;;
49784;SDS011;35679;38.732;-121.358;2023-06-10T00:52:10;1.60;;;1.50;;
49784;SDS011;35679;38.732;-121.358;2023-06-10T00:55:01;2.00;;;1.80;;
49784;SDS011;35679;38.732;-121.358;2023-06-10T00:57:50;1.52;;;1.42;;
49784;SDS011;35679;38.732;-121.358;2023-06-10T01:00:42;2.20;;;1.70;;
49784;SDS011;35679;38.732;-121.358;2023-06-10T01:03:33;1.70;;;1.60;;
49784;SDS011;35679;38.732;-121.358;2023-06-10T01:09:44;1.80;;;1.70;;
49784;SDS011;35679;38.732;-121.358;2023-06-10T01:15:37;1.65;;;1.55;;
49784;SDS011;35679;38.732;-121.358;2023-06-10T01:18:30;2.10;;;1.90;;
49784;SDS011;35679;38.732;-121.358;2023-06-10T01:21:20;1.65;;;1.55;;
49784;SDS011;35679;38.732;-121.358;2023-06-10T01:24:13;1.80;;;1.70;;
49784;SDS011;35679;38.732;-121.358;2023-06-10T01:27:04;1.80;;;1.70;;
49784;SDS011;35679;38.732;-121.358;2023-06-10T01:29:58;1.65;;;1.50;;
49784;SDS011;35679;38.732;-121.358;2023-06-10T01:32:53;2.55;;;1.65;;
49784;SDS011;35679;38.732;-121.358;2023-06-10T01:35:43;1.85;;;1.48;;
49784;SDS011;35679;38.732;-121.358;2023-06-10T01:38:36;3.72;;;1.80;;
49784;SDS011;35679;38.732;-121.358;2023-06-10T01:41:31;1.70;;;1.60;;
49784;SDS011;35679;38.732;-121.358;2023-06-10T01:44:21;1.60;;;1.50;;
49784;SDS011;35679;38.732;-121.358;2023-06-10T01:47:11;2.33;;;1.75;;
49784;SDS011;35679;38.732;-121.358;2023-06-10T01:50:01;1.70;;;1.60;;
49784;SDS011;35679;38.732;-121.358;2023-06-10T01:52:50;1.55;;;1.50;;
49784;SDS011;35679;38.732;-121.358;2023-06-10T01:55:40;1.60;;;1.50;;
49784;SDS011;35679;38.732;-121.358;2023-06-10T01:58:30;2.72;;;1.70;;
49784;SDS011;35679;38.732;-121.358;2023-06-10T02:01:19;2.55;;;1.40;;
49784;SDS011;35679;38.732;-121.358;2023-06-10T02:04:09;1.70;;;1.60;;
49784;SDS011;35679;38.732;-121.358;2023-06-10T02:06:58;1.50;;;1.40;;
49784;SDS011;35679;38.732;-121.358;2023-06-10T02:09:52;1.67;;;1.58;;
49784;SDS011;35679;38.732;-121.358;2023-06-10T02:12:42;1.63;;;1.52;;
49784;SDS011;35679;38.732;-121.358;2023-06-10T02:15:31;1.73;;;1.60;;
49784;SDS011;35679;38.732;-121.358;2023-06-10T02:18:23;1.60;;;1.42;;
49784;SDS011;35679;38.732;-121.358;2023-06-10T02:21:12;3.83;;;1.55;;
49784;SDS011;35679;38.732;-121.358;2023-06-10T02:24:02;1.90;;;1.73;;
49784;SDS011;35679;38.732;-121.358;2023-06-10T02:26:51;1.83;;;1.70;;
49784;SDS011;35679;38.732;-121.358;2023-06-10T02:29:41;1.75;;;1.65;;
49784;SDS011;35679;38.732;-121.358;2023-06-10T02:32:31;1.80;;;1.70;;
49784;SDS011;35679;38.732;-121.358;2023-06-10T02:35:21;1.75;;;1.60;;
49784;SDS011;35679;38.732;-121.358;2023-06-10T02:38:13;1.80;;;1.70;;
49784;SDS011;35679;38.732;-121.358;2023-06-10T02:41:02;1.92;;;1.80;;
49784;SDS011;35679;38.732;-121.358;2023-06-10T02:43:52;1.75;;;1.65;;
49784;SDS011;35679;38.732;-121.358;2023-06-10T02:46:42;1.60;;;1.50;;
49784;SDS011;35679;38.732;-121.358;2023-06-10T02:49:32;1.88;;;1.77;;
49784;SDS011;35679;38.732;-121.358;2023-06-10T02:52:22;1.70;;;1.60;;
49784;SDS011;35679;38.732;-121.358;2023-06-10T02:55:11;1.65;;;1.55;;
49784;SDS011;35679;38.732;-121.358;2023-06-10T02:58:07;2.60;;;1.40;;
49784;SDS011;35679;38.732;-121.358;2023-06-10T03:00:56;1.80;;;1.70;;
49784;SDS011;35679;38.732;-121.358;2023-06-10T03:03:52;1.77;;;1.67;;
49784;SDS011;35679;38.732;-121.358;2023-06-10T03:06:45;1.50;;;1.50;;
49784;SDS011;35679;38.732;-121.358;2023-06-10T03:09:41;2.00;;;1.90;;
49784;SDS011;35679;38.732;-121.358;2023-06-10T03:12:34;1.90;;;1.80;;
49784;SDS011;35679;38.732;-121.358;2023-06-10T03:15:23;1.75;;;1.65;;
49784;SDS011;35679;38.732;-121.358;2023-06-10T03:18:13;1.65;;;1.55;;
49784;SDS011;35679;38.732;-121.358;2023-06-10T03:21:04;2.25;;;1.65;;
49784;SDS011;35679;38.732;-121.358;2023-06-10T03:23:53;1.60;;;1.50;;
49784;SDS011;35679;38.732;-121.358;2023-06-10T03:26:43;1.90;;;1.80;;
49784;SDS011;35679;38.732;-121.358;2023-06-10T03:29:34;1.80;;;1.70;;
49784;SDS011;35679;38.732;-121.358;2023-06-10T03:32:26;1.50;;;1.50;;
49784;SDS011;35679;38.732;-121.358;2023-06-10T03:35:15;1.60;;;1.50;;
49784;SDS011;35679;38.732;-121.358;2023-06-10T03:38:06;1.63;;;1.52;;
49784;SDS011;35679;38.732;-121.358;2023-06-10T03:40:55;1.48;;;1.38;;
49784;SDS011;35679;38.732;-121.358;2023-06-10T03:43:45;20.67;;;19.48;;
49784;SDS011;35679;38.732;-121.358;2023-06-10T03:46:36;21.00;;;19.80;;
49784;SDS011;35679;38.732;-121.358;2023-06-10T03:49:25;20.50;;;19.20;;
49784;SDS011;35679;38.732;-121.358;2023-06-10T03:52:20;24.63;;;23.20;;
49784;SDS011;35679;38.732;-121.358;2023-06-10T03:55:10;23.80;;;22.60;;
49784;SDS011;35679;38.732;-121.358;2023-06-10T03:58:04;25.17;;;23.88;;
49784;SDS011;35679;38.732;-121.358;2023-06-10T04:00:53;25.60;;;24.20;;
49784;SDS011;35679;38.732;-121.358;2023-06-10T04:03:51;24.50;;;23.10;;
49784;SDS011;35679;38.732;-121.358;2023-06-10T04:06:42;25.60;;;24.40;;
49784;SDS011;35679;38.732;-121.358;2023-06-10T04:09:36;26.00;;;24.70;;
49784;SDS011;35679;38.732;-121.358;2023-06-10T04:12:26;25.58;;;24.35;;
49784;SDS011;35679;38.732;-121.358;2023-06-10T04:15:15;25.17;;;23.98;;
49784;SDS011;35679;38.732;-121.358;2023-06-10T04:18:06;26.30;;;25.00;;
49784;SDS011;35679;38.732;-121.358;2023-06-10T04:20:56;25.23;;;23.92;;
49784;SDS011;35679;38.732;-121.358;2023-06-10T04:23:45;27.00;;;25.60;;
49784;SDS011;35679;38.732;-121.358;2023-06-10T04:26:35;25.77;;;24.58;;
49784;SDS011;35679;38.732;-121.358;2023-06-10T04:29:25;22.70;;;21.60;;
49784;SDS011;35679;38.732;-121.358;2023-06-10T04:32:14;22.70;;;21.35;;
49784;SDS011;35679;38.732;-121.358;2023-06-10T04:35:04;22.65;;;21.55;;
49784;SDS011;35679;38.732;-121.358;2023-06-10T04:37:56;22.42;;;21.23;;
49784;SDS011;35679;38.732;-121.358;2023-06-10T04:40:46;22.42;;;21.33;;
49784;SDS011;35679;38.732;-121.358;2023-06-10T04:43:36;4.53;;;4.32;;
49784;SDS011;35679;38.732;-121.358;2023-06-10T04:46:26;9.30;;;8.90;;
49784;SDS011;35679;38.732;-121.358;2023-06-10T04:49:15;9.23;;;8.82;;
49784;SDS011;35679;38.732;-121.358;2023-06-10T04:52:06;9.45;;;9.05;;
49784;SDS011;35679;38.732;-121.358;2023-06-10T04:54:58;9.10;;;8.70;;
49784;SDS011;35679;38.732;-121.358;2023-06-10T04:57:48;9.45;;;9.05;;
49784;SDS011;35679;38.732;-121.358;2023-06-10T05:00:39;8.52;;;8.18;;
49784;SDS011;35679;38.732;-121.358;2023-06-10T05:03:28;9.20;;;8.80;;
49784;SDS011;35679;38.732;-121.358;2023-06-10T05:06:18;8.90;;;8.50;;
49784;SDS011;35679;38.732;-121.358;2023-06-10T05:09:08;9.35;;;8.95;;
49784;SDS011;35679;38.732;-121.358;2023-06-10T05:11:58;9.55;;;9.15;;
49784;SDS011;35679;38.732;-121.358;2023-06-10T05:14:48;8.80;;;8.50;;
49784;SDS011;35679;38.732;-121.358;2023-06-10T05:17:37;8.60;;;8.30;;
49784;SDS011;35679;38.732;-121.358;2023-06-10T05:20:27;8.98;;;8.60;;
49784;SDS011;35679;38.732;-121.358;2023-06-10T05:23:17;9.20;;;8.80;;
49784;SDS011;35679;38.732;-121.358;2023-06-10T05:26:06;9.10;;;8.70;;
49784;SDS011;35679;38.732;-121.358;2023-06-10T05:28:56;8.85;;;8.45;;
49784;SDS011;35679;38.732;-121.358;2023-06-10T05:31:45;8.80;;;8.50;;
49784;SDS011;35679;38.732;-121.358;2023-06-10T05:34:35;8.88;;;8.48;;
49784;SDS011;35679;38.732;-121.358;2023-06-10T05:37:24;8.20;;;7.90;;
49784;SDS011;35679;38.732;-121.358;2023-06-10T05:40:14;8.10;;;7.70;;
49784;SDS011;35679;38.732;-121.358;2023-06-10T05:43:03;8.50;;;8.10;;
49784;SDS011;35679;38.732;-121.358;2023-06-10T05:45:52;8.60;;;8.10;;
49784;SDS011;35679;38.732;-121.358;2023-06-10T05:48:42;8.32;;;7.93;;
49784;SDS011;35679;38.732;-121.358;2023-06-10T05:51:31;8.40;;;8.00;;
49784;SDS011;35679;38.732;-121.358;2023-06-10T05:54:21;8.93;;;8.60;;
49784;SDS011;35679;38.732;-121.358;2023-06-10T05:57:10;8.80;;;8.40;;
49784;SDS011;35679;38.732;-121.358;2023-06-10T06:00:00;8.60;;;8.30;;
49784;SDS011;35679;38.732;-121.358;2023-06-10T06:02:58;8.93;;;8.63;;
49784;SDS011;35679;38.732;-121.358;2023-06-10T06:05:48;8.75;;;8.38;;
49784;SDS011;35679;38.732;-121.358;2023-06-10T06:08:37;9.40;;;9.00;;
49784;SDS011;35679;38.732;-121.358;2023-06-10T06:11:26;9.23;;;8.82;;
49784;SDS011;35679;38.732;-121.358;2023-06-10T06:14:16;9.10;;;8.70;;
49784;SDS011;35679;38.732;-121.358;2023-06-10T06:17:06;8.70;;;8.40;;
49784;SDS011;35679;38.732;-121.358;2023-06-10T06:19:56;8.50;;;8.20;;
49784;SDS011;35679;38.732;-121.358;2023-06-10T06:22:45;8.80;;;8.40;;
49784;SDS011;35679;38.732;-121.358;2023-06-10T06:25:35;8.70;;;8.40;;
49784;SDS011;35679;38.732;-121.358;2023-06-10T06:28:25;8.80;;;8.40;;
49784;SDS011;35679;38.732;-121.358;2023-06-10T06:31:17;8.57;;;8.27;;
49784;SDS011;35679;38.732;-121.358;2023-06-10T06:34:07;8.80;;;8.40;;
49784;SDS011;35679;38.732;-121.358;2023-06-10T06:36:56;8.43;;;8.13;;
49784;SDS011;35679;38.732;-121.358;2023-06-10T06:39:47;8.38;;;8.07;;
49784;SDS011;35679;38.732;-121.358;2023-06-10T06:42:37;8.93;;;8.52;;
49784;SDS011;35679;38.732;-121.358;2023-06-10T06:45:35;8.68;;;8.27;;
49784;SDS011;35679;38.732;-121.358;2023-06-10T06:48:25;8.48;;;7.97;;
49784;SDS011;35679;38.732;-121.358;2023-06-10T06:51:15;7.90;;;7.60;;
49784;SDS011;35679;38.732;-121.358;2023-06-10T06:54:04;7.90;;;7.60;;
49784;SDS011;35679;38.732;-121.358;2023-06-10T06:56:54;7.57;;;7.28;;
49784;SDS011;35679;38.732;-121.358;2023-06-10T06:59:43;7.85;;;7.55;;
49784;SDS011;35679;38.732;-121.358;2023-06-10T07:02:33;7.78;;;7.28;;
49784;SDS011;35679;38.732;-121.358;2023-06-10T07:05:23;7.60;;;7.30;;
49784;SDS011;35679;38.732;-121.358;2023-06-10T07:08:15;6.82;;;6.53;;
49784;SDS011;35679;38.732;-121.358;2023-06-10T07:11:05;7.10;;;6.80;;
49784;SDS011;35679;38.732;-121.358;2023-06-10T07:13:55;7.10;;;6.80;;
49784;SDS011;35679;38.732;-121.358;2023-06-10T07:16:44;7.55;;;7.25;;
49784;SDS011;35679;38.732;-121.358;2023-06-10T07:19:35;7.65;;;7.20;;
49784;SDS011;35679;38.732;-121.358;2023-06-10T07:22:24;8.50;;;8.20;;
49784;SDS011;35679;38.732;-121.358;2023-06-10T07:25:14;8.18;;;7.78;;
49784;SDS011;35679;38.732;-121.358;2023-06-10T07:28:04;8.85;;;8.45;;
49784;SDS011;35679;38.732;-121.358;2023-06-10T07:30:53;8.13;;;7.82;;
49784;SDS011;35679;38.732;-121.358;2023-06-10T07:33:43;8.05;;;7.75;;
49784;SDS011;35679;38.732;-121.358;2023-06-10T07:36:32;7.95;;;7.65;;
49784;SDS011;35679;38.732;-121.358;2023-06-10T07:39:21;6.68;;;6.43;;
49784;SDS011;35679;38.732;-121.358;2023-06-10T07:42:11;8.32;;;8.02;;
49784;SDS011;35679;38.732;-121.358;2023-06-10T07:45:00;7.22;;;6.93;;
49784;SDS011;35679;38.732;-121.358;2023-06-10T07:47:50;7.50;;;7.20;;
49784;SDS011;35679;38.732;-121.358;2023-06-10T07:50:40;7.05;;;6.70;;
49784;SDS011;35679;38.732;-121.358;2023-06-10T07:53:30;7.20;;;6.90;;
49784;SDS011;35679;38.732;-121.358;2023-06-10T07:56:19;6.93;;;6.57;;
49784;SDS011;35679;38.732;-121.358;2023-06-10T07:59:10;7.53;;;7.22;;
49784;SDS011;35679;38.732;-121.358;2023-06-10T08:01:59;7.95;;;7.65;;
49784;SDS011;35679;38.732;-121.358;2023-06-10T08:04:49;8.10;;;7.80;;
49784;SDS011;35679;38.732;-121.358;2023-06-10T08:07:41;8.60;;;8.20;;
49784;SDS011;35679;38.732;-121.358;2023-06-10T08:10:31;7.70;;;7.40;;
49784;SDS011;35679;38.732;-121.358;2023-06-10T08:13:21;7.07;;;6.78;;
49784;SDS011;35679;38.732;-121.358;2023-06-10T08:16:11;6.72;;;6.50;;
49784;SDS011;35679;38.732;-121.358;2023-06-10T08:19:00;7.22;;;6.82;;
49784;SDS011;35679;38.732;-121.358;2023-06-10T08:21:50;6.90;;;6.60;;
49784;SDS011;35679;38.732;-121.358;2023-06-10T08:24:39;6.40;;;6.10;;
49784;SDS011;35679;38.732;-121.358;2023-06-10T08:27:29;6.47;;;6.20;;
49784;SDS011;35679;38.732;-121.358;2023-06-10T08:30:18;6.10;;;5.90;;
49784;SDS011;35679;38.732;-121.358;2023-06-10T08:33:08;6.47;;;6.18;;
49784;SDS011;35679;38.732;-121.358;2023-06-10T08:35:57;5.70;;;5.50;;
49784;SDS011;35679;38.732;-121.358;2023-06-10T08:38:47;5.90;;;5.70;;
49784;SDS011;35679;38.732;-121.358;2023-06-10T08:41:37;6.20;;;6.00;;
49784;SDS011;35679;38.732;-121.358;2023-06-10T08:44:32;5.90;;;5.60;;
49784;SDS011;35679;38.732;-121.358;2023-06-10T08:47:26;5.90;;;5.70;;
49784;SDS011;35679;38.732;-121.358;2023-06-10T08:50:21;6.20;;;6.00;;
49784;SDS011;35679;38.732;-121.358;2023-06-10T08:53:13;6.40;;;6.20;;
49784;SDS011;35679;38.732;-121.358;2023-06-10T08:56:05;6.00;;;5.80;;
49784;SDS011;35679;38.732;-121.358;2023-06-10T08:58:55;6.00;;;5.70;;
49784;SDS011;35679;38.732;-121.358;2023-06-10T09:01:46;6.00;;;5.80;;
49784;SDS011;35679;38.732;-121.358;2023-06-10T09:04:37;6.07;;;5.88;;
49784;SDS011;35679;38.732;-121.358;2023-06-10T09:07:26;5.80;;;5.60;;
49784;SDS011;35679;38.732;-121.358;2023-06-10T09:10:17;5.68;;;5.47;;
49784;SDS011;35679;38.732;-121.358;2023-06-10T09:13:06;5.90;;;5.70;;
49784;SDS011;35679;38.732;-121.358;2023-06-10T09:15:56;5.75;;;5.55;;
49784;SDS011;35679;38.732;-121.358;2023-06-10T09:18:50;5.70;;;5.50;;
49784;SDS011;35679;38.732;-121.358;2023-06-10T09:21:43;5.60;;;5.40;;
49784;SDS011;35679;38.732;-121.358;2023-06-10T09:24:32;6.15;;;5.95;;
49784;SDS011;35679;38.732;-121.358;2023-06-10T09:27:22;5.97;;;5.78;;
49784;SDS011;35679;38.732;-121.358;2023-06-10T09:30:22;6.10;;;5.90;;
49784;SDS011;35679;38.732;-121.358;2023-06-10T09:33:16;6.00;;;5.80;;
49784;SDS011;35679;38.732;-121.358;2023-06-10T09:36:06;6.10;;;5.90;;
49784;SDS011;35679;38.732;-121.358;2023-06-10T09:38:56;6.13;;;5.93;;
49784;SDS011;35679;38.732;-121.358;2023-06-10T09:41:46;6.15;;;5.93;;
49784;SDS011;35679;38.732;-121.358;2023-06-10T09:44:35;5.97;;;5.78;;
49784;SDS011;35679;38.732;-121.358;2023-06-10T09:47:27;6.00;;;5.80;;
49784;SDS011;35679;38.732;-121.358;2023-06-10T09:50:18;6.28;;;5.72;;
49784;SDS011;35679;38.732;-121.358;2023-06-10T09:53:07;6.70;;;6.40;;
49784;SDS011;35679;38.732;-121.358;2023-06-10T09:55:57;6.38;;;6.07;;
49784;SDS011;35679;38.732;-121.358;2023-06-10T09:58:47;6.40;;;6.20;;
49784;SDS011;35679;38.732;-121.358;2023-06-10T10:01:36;6.68;;;6.38;;
49784;SDS011;35679;38.732;-121.358;2023-06-10T10:04:26;6.30;;;6.10;;
49784;SDS011;35679;38.732;-121.358;2023-06-10T10:07:17;6.40;;;6.10;;
49784;SDS011;35679;38.732;-121.358;2023-06-10T10:10:06;6.05;;;5.85;;
49784;SDS011;35679;38.732;-121.358;2023-06-10T10:12:57;6.38;;;6.18;;
49784;SDS011;35679;38.732;-121.358;2023-06-10T10:15:47;6.13;;;5.80;;
49784;SDS011;35679;38.732;-121.358;2023-06-10T10:18:39;5.90;;;5.70;;
49784;SDS011;35679;38.732;-121.358;2023-06-10T10:21:32;5.93;;;5.72;;
49784;SDS011;35679;38.732;-121.358;2023-06-10T10:25:02;6.00;;;5.80;;
49784;SDS011;35679;38.732;-121.358;2023-06-10T10:27:52;5.97;;;5.68;;
49784;SDS011;35679;38.732;-121.358;2023-06-10T10:30:50;5.88;;;5.68;;
49784;SDS011;35679;38.732;-121.358;2023-06-10T10:33:53;6.00;;;5.80;;
49784;SDS011;35679;38.732;-121.358;2023-06-10T10:36:47;6.15;;;5.95;;
49784;SDS011;35679;38.732;-121.358;2023-06-10T10:39:38;5.80;;;5.60;;
49784;SDS011;35679;38.732;-121.358;2023-06-10T10:42:28;5.70;;;5.50;;
49784;SDS011;35679;38.732;-121.358;2023-06-10T10:45:19;6.22;;;5.93;;
49784;SDS011;35679;38.732;-121.358;2023-06-10T10:48:10;5.65;;;5.30;;
49784;SDS011;35679;38.732;-121.358;2023-06-10T10:51:01;5.78;;;5.55;;
49784;SDS011;35679;38.732;-121.358;2023-06-10T10:54:09;6.10;;;5.80;;
49784;SDS011;35679;38.732;-121.358;2023-06-10T10:57:15;5.97;;;5.68;;
49784;SDS011;35679;38.732;-121.358;2023-06-10T11:00:06;6.15;;;5.90;;
49784;SDS011;35679;38.732;-121.358;2023-06-10T11:03:04;6.53;;;6.32;;
49784;SDS011;35679;38.732;-121.358;2023-06-10T11:05:58;5.80;;;5.60;;
49784;SDS011;35679;38.732;-121.358;2023-06-10T11:08:48;6.00;;;5.70;;
49784;SDS011;35679;38.732;-121.358;2023-06-10T11:11:38;5.80;;;5.60;;
49784;SDS011;35679;38.732;-121.358;2023-06-10T11:14:38;5.70;;;5.50;;
49784;SDS011;35679;38.732;-121.358;2023-06-10T11:21:16;6.05;;;5.70;;
49784;SDS011;35679;38.732;-121.358;2023-06-10T11:24:12;5.53;;;5.32;;
49784;SDS011;35679;38.732;-121.358;2023-06-10T11:27:18;5.85;;;5.55;;
49784;SDS011;35679;38.732;-121.358;2023-06-10T11:30:18;3.25;;;3.15;;
49784;SDS011;35679;38.732;-121.358;2023-06-10T11:33:08;3.47;;;3.33;;
49784;SDS011;35679;38.732;-121.358;2023-06-10T11:36:06;3.25;;;3.15;;
49784;SDS011;35679;38.732;-121.358;2023-06-10T11:38:57;4.40;;;4.20;;
49784;SDS011;35679;38.732;-121.358;2023-06-10T11:41:48;4.10;;;3.90;;
49784;SDS011;35679;38.732;-121.358;2023-06-10T11:44:39;6.22;;;6.00;;
49784;SDS011;35679;38.732;-121.358;2023-06-10T11:47:40;6.28;;;5.97;;
49784;SDS011;35679;38.732;-121.358;2023-06-10T11:50:44;6.30;;;6.00;;
49784;SDS011;35679;38.732;-121.358;2023-06-10T11:53:33;6.38;;;6.07;;
49784;SDS011;35679;38.732;-121.358;2023-06-10T11:56:23;6.32;;;6.03;;
49784;SDS011;35679;38.732;-121.358;2023-06-10T11:59:15;6.40;;;6.10;;
49784;SDS011;35679;38.732;-121.358;2023-06-10T12:02:04;5.80;;;5.60;;
49784;SDS011;35679;38.732;-121.358;2023-06-10T12:04:54;6.20;;;5.90;;
49784;SDS011;35679;38.732;-121.358;2023-06-10T12:08:11;6.03;;;5.82;;
49784;SDS011;35679;38.732;-121.358;2023-06-10T12:11:01;2.75;;;2.58;;
49784;SDS011;35679;38.732;-121.358;2023-06-10T12:13:50;2.70;;;2.60;;
49784;SDS011;35679;38.732;-121.358;2023-06-10T12:16:40;3.20;;;3.05;;
49784;SDS011;35679;38.732;-121.358;2023-06-10T12:19:39;4.30;;;4.20;;
49784;SDS011;35679;38.732;-121.358;2023-06-10T12:22:36;4.55;;;4.35;;
49784;SDS011;35679;38.732;-121.358;2023-06-10T12:25:29;4.85;;;4.65;;
49784;SDS011;35679;38.732;-121.358;2023-06-10T12:28:22;6.10;;;5.80;;
49784;SDS011;35679;38.732;-121.358;2023-06-10T12:31:12;6.10;;;5.80;;
49784;SDS011;35679;38.732;-121.358;2023-06-10T12:34:08;6.60;;;6.30;;
49784;SDS011;35679;38.732;-121.358;2023-06-10T12:36:58;5.03;;;4.68;;
49784;SDS011;35679;38.732;-121.358;2023-06-10T12:39:50;4.30;;;4.10;;
49784;SDS011;35679;38.732;-121.358;2023-06-10T12:42:44;6.65;;;6.30;;
49784;SDS011;35679;38.732;-121.358;2023-06-10T12:45:37;4.28;;;4.07;;
49784;SDS011;35679;38.732;-121.358;2023-06-10T12:48:36;6.18;;;5.88;;
49784;SDS011;35679;38.732;-121.358;2023-06-10T12:51:37;4.90;;;4.60;;
49784;SDS011;35679;38.732;-121.358;2023-06-10T12:54:27;6.30;;;6.00;;
49784;SDS011;35679;38.732;-121.358;2023-06-10T12:57:17;6.05;;;5.63;;
49784;SDS011;35679;38.732;-121.358;2023-06-10T13:00:07;3.20;;;3.00;;
49784;SDS011;35679;38.732;-121.358;2023-06-10T13:02:59;6.57;;;6.07;;
49784;SDS011;35679;38.732;-121.358;2023-06-10T13:05:54;3.28;;;3.17;;
49784;SDS011;35679;38.732;-121.358;2023-06-10T13:08:43;3.20;;;3.00;;
49784;SDS011;35679;38.732;-121.358;2023-06-10T13:11:33;3.08;;;2.95;;
49784;SDS011;35679;38.732;-121.358;2023-06-10T13:14:23;3.40;;;3.30;;
49784;SDS011;35679;38.732;-121.358;2023-06-10T13:17:13;3.28;;;2.90;;
49784;SDS011;35679;38.732;-121.358;2023-06-10T13:20:03;2.80;;;2.60;;
49784;SDS011;35679;38.732;-121.358;2023-06-10T13:22:54;3.50;;;3.30;;
49784;SDS011;35679;38.732;-121.358;2023-06-10T13:25:43;3.20;;;3.00;;
49784;SDS011;35679;38.732;-121.358;2023-06-10T13:28:33;3.13;;;2.97;;
49784;SDS011;35679;38.732;-121.358;2023-06-10T13:31:22;3.10;;;3.00;;
49784;SDS011;35679;38.732;-121.358;2023-06-10T13:34:12;2.70;;;2.60;;
49784;SDS011;35679;38.732;-121.358;2023-06-10T13:37:02;3.00;;;2.90;;
49784;SDS011;35679;38.732;-121.358;2023-06-10T13:39:53;3.05;;;2.85;;
49784;SDS011;35679;38.732;-121.358;2023-06-10T13:42:42;3.20;;;3.00;;
49784;SDS011;35679;38.732;-121.358;2023-06-10T13:45:32;3.63;;;3.33;;
49784;SDS011;35679;38.732;-121.358;2023-06-10T13:48:22;3.53;;;3.33;;
49784;SDS011;35679;38.732;-121.358;2023-06-10T13:51:11;3.42;;;3.20;;
49784;SDS011;35679;38.732;-121.358;2023-06-10T13:54:01;3.35;;;3.15;;
49784;SDS011;35679;38.732;-121.358;2023-06-10T13:56:50;3.78;;;3.58;;
49784;SDS011;35679;38.732;-121.358;2023-06-10T13:59:40;3.42;;;3.20;;
49784;SDS011;35679;38.732;-121.358;2023-06-10T14:02:29;3.60;;;3.40;;
49784;SDS011;35679;38.732;-121.358;2023-06-10T14:05:18;3.60;;;3.40;;
49784;SDS011;35679;38.732;-121.358;2023-06-10T14:08:08;3.65;;;3.45;;
49784;SDS011;35679;38.732;-121.358;2023-06-10T14:10:57;3.67;;;3.47;;
49784;SDS011;35679;38.732;-121.358;2023-06-10T14:13:47;3.63;;;3.40;;
49784;SDS011;35679;38.732;-121.358;2023-06-10T14:16:36;3.50;;;3.30;;
49784;SDS011;35679;38.732;-121.358;2023-06-10T14:19:29;3.83;;;3.63;;
49784;SDS011;35679;38.732;-121.358;2023-06-10T14:22:19;3.40;;;3.08;;
49784;SDS011;35679;38.732;-121.358;2023-06-10T14:25:08;3.42;;;3.28;;
49784;SDS011;35679;38.732;-121.358;2023-06-10T14:28:00;3.60;;;3.30;;
49784;SDS011;35679;38.732;-121.358;2023-06-10T14:30:49;3.60;;;3.40;;
49784;SDS011;35679;38.732;-121.358;2023-06-10T14:33:43;3.22;;;3.03;;
49784;SDS011;35679;38.732;-121.358;2023-06-10T14:36:33;3.28;;;3.08;;
49784;SDS011;35679;38.732;-121.358;2023-06-10T14:39:23;3.53;;;3.22;;
49784;SDS011;35679;38.732;-121.358;2023-06-10T14:42:13;3.40;;;3.20;;
49784;SDS011;35679;38.732;-121.358;2023-06-10T14:45:02;3.58;;;3.30;;
49784;SDS011;35679;38.732;-121.358;2023-06-10T14:47:53;3.65;;;3.35;;
49784;SDS011;35679;38.732;-121.358;2023-06-10T14:50:42;3.40;;;3.20;;
49784;SDS011;35679;38.732;-121.358;2023-06-10T14:53:35;3.30;;;3.10;;
49784;SDS011;35679;38.732;-121.358;2023-06-10T14:56:24;3.35;;;3.10;;
49784;SDS011;35679;38.732;-121.358;2023-06-10T14:59:14;3.28;;;3.08;;
49784;SDS011;35679;38.732;-121.358;2023-06-10T15:02:03;3.75;;;3.45;;
49784;SDS011;35679;38.732;-121.358;2023-06-10T15:04:53;3.53;;;3.22;;
49784;SDS011;35679;38.732;-121.358;2023-06-10T15:07:43;3.50;;;3.30;;
49784;SDS011;35679;38.732;-121.358;2023-06-10T15:10:32;3.65;;;3.42;;
49784;SDS011;35679;38.732;-121.358;2023-06-10T15:13:22;3.50;;;3.30;;
49784;SDS011;35679;38.732;-121.358;2023-06-10T15:16:11;3.20;;;3.10;;
49784;SDS011;35679;38.732;-121.358;2023-06-10T15:19:03;3.75;;;3.53;;
49784;SDS011;35679;38.732;-121.358;2023-06-10T15:21:55;3.70;;;3.50;;
49784;SDS011;35679;38.732;-121.358;2023-06-10T15:24:44;4.10;;;3.80;;
49784;SDS011;35679;38.732;-121.358;2023-06-10T15:27:33;4.18;;;3.97;;
49784;SDS011;35679;38.732;-121.358;2023-06-10T15:30:23;3.95;;;3.75;;
49784;SDS011;35679;38.732;-121.358;2023-06-10T15:33:12;3.90;;;3.70;;
49784;SDS011;35679;38.732;-121.358;2023-06-10T15:36:02;3.53;;;3.33;;
49784;SDS011;35679;38.732;-121.358;2023-06-10T15:38:53;3.60;;;3.40;;
49784;SDS011;35679;38.732;-121.358;2023-06-10T15:41:43;3.90;;;3.63;;
49784;SDS011;35679;38.732;-121.358;2023-06-10T15:44:32;3.72;;;3.42;;
49784;SDS011;35679;38.732;-121.358;2023-06-10T15:47:22;3.60;;;3.40;;
49784;SDS011;35679;38.732;-121.358;2023-06-10T15:50:11;3.80;;;3.60;;
49784;SDS011;35679;38.732;-121.358;2023-06-10T15:53:01;3.80;;;3.60;;
49784;SDS011;35679;38.732;-121.358;2023-06-10T15:55:50;3.97;;;3.70;;
49784;SDS011;35679;38.732;-121.358;2023-06-10T15:58:39;3.45;;;3.25;;
49784;SDS011;35679;38.732;-121.358;2023-06-10T16:01:29;3.55;;;3.35;;
49784;SDS011;35679;38.732;-121.358;2023-06-10T16:04:19;3.75;;;3.55;;
49784;SDS011;35679;38.732;-121.358;2023-06-10T16:07:08;3.67;;;3.38;;
49784;SDS011;35679;38.732;-121.358;2023-06-10T16:09:58;3.70;;;3.50;;
49784;SDS011;35679;38.732;-121.358;2023-06-10T16:12:47;3.75;;;3.55;;
49784;SDS011;35679;38.732;-121.358;2023-06-10T16:15:37;3.78;;;3.40;;
49784;SDS011;35679;38.732;-121.358;2023-06-10T16:18:26;3.58;;;3.38;;
49784;SDS011;35679;38.732;-121.358;2023-06-10T16:21:16;3.80;;;3.60;;
49784;SDS011;35679;38.732;-121.358;2023-06-10T16:24:06;3.33;;;3.20;;
49784;SDS011;35679;38.732;-121.358;2023-06-10T16:26:56;3.15;;;3.05;;
49784;SDS011;35679;38.732;-121.358;2023-06-10T16:29:45;3.60;;;3.40;;
49784;SDS011;35679;38.732;-121.358;2023-06-10T16:32:35;3.65;;;3.45;;
49784;SDS011;35679;38.732;-121.358;2023-06-10T16:35:24;3.90;;;3.60;;